createdAt,value
2022-08-20T00:16:32.299Z,127
2022-08-20T00:56:32.259Z,128
2022-08-20T01:16:31.745Z,129
2022-08-20T01:36:46.624Z,128
2022-08-20T01:56:32.228Z,128
2022-08-20T02:16:32.214Z,128
2022-08-20T02:36:32.301Z,130
2022-08-20T02:56:32.205Z,130
2022-08-20T03:36:39.209Z,129
2022-08-20T03:56:32.183Z,127
2022-08-20T04:16:32.167Z,130
2022-08-20T04:36:32.172Z,131
2022-08-20T04:56:32.163Z,131
2022-08-20T05:16:39.469Z,131
2022-08-20T05:36:32.149Z,127
2022-08-20T05:56:31.643Z,134
2022-08-20T06:16:32.142Z,134
2022-08-20T06:36:31.635Z,134
2022-08-20T06:56:32.124Z,136
2022-08-20T07:16:32.131Z,134
2022-08-20T07:36:32.115Z,131
2022-08-20T07:56:32.088Z,135
2022-08-20T08:16:32.115Z,135
2022-08-20T08:36:32.127Z,135
2022-08-20T08:56:32.076Z,134
2022-08-20T09:16:45.686Z,139
2022-08-20T09:36:39.075Z,153
2022-08-20T09:56:31.859Z,153
2022-08-20T10:16:32.040Z,152
2022-08-20T10:36:31.578Z,150
2022-08-20T10:56:32.025Z,145
2022-08-20T11:16:31.560Z,143
2022-08-20T11:36:32.045Z,140
2022-08-20T11:56:31.541Z,141
2022-08-20T12:16:31.814Z,140
2022-08-20T12:36:32.163Z,140
2022-08-20T12:56:31.785Z,140
2022-08-20T13:16:31.457Z,134
2022-08-20T13:36:31.942Z,134
2022-08-20T13:56:32.001Z,122
2022-08-20T14:16:35.712Z,121
2022-08-20T14:36:31.911Z,124
2022-08-20T14:56:31.904Z,128
2022-08-20T15:16:32.219Z,134
2022-08-20T15:36:31.887Z,134
2022-08-20T15:56:31.877Z,134
2022-08-20T16:16:31.853Z,137
2022-08-20T16:36:31.868Z,139
2022-08-20T16:56:31.832Z,132
2022-08-20T17:16:31.865Z,131
2022-08-20T17:36:31.824Z,139
2022-08-20T17:56:31.799Z,136
2022-08-20T18:16:31.308Z,138
2022-08-20T18:36:31.785Z,132
2022-08-20T18:56:31.781Z,132
2022-08-20T19:16:31.772Z,131
2022-08-20T19:36:31.769Z,129
2022-08-20T19:56:31.765Z,131
2022-08-20T20:16:31.748Z,135
2022-08-20T20:36:31.760Z,135
2022-08-20T20:56:31.743Z,134
2022-08-20T21:16:31.728Z,133
2022-08-20T21:36:31.727Z,130
2022-08-20T21:56:32.039Z,131
2022-08-20T22:36:31.720Z,130
2022-08-20T22:56:31.709Z,133
2022-08-20T23:36:31.212Z,132
2022-08-20T23:56:31.690Z,134
